sensor_id;sensor_type;location;lat;lon;timestamp;P1;durP1;ratioP1;P2;durP2;ratioP2
39750;SDS011;37579;51.074;17.004;2022-09-13T11:35:01;5.03;;;2.97;;
39750;SDS011;37579;51.074;17.004;2022-09-13T11:42:58;4.57;;;2.50;;
39750;SDS011;37579;51.074;17.004;2022-09-13T11:57:28;2.65;;;2.13;;
39750;SDS011;37579;51.074;17.004;2022-09-13T12:00:03;4.95;;;2.35;;
39750;SDS011;37579;51.074;17.004;2022-09-13T12:03:00;2.72;;;2.40;;
39750;SDS011;37579;51.074;17.004;2022-09-13T12:05:31;3.92;;;2.60;;
39750;SDS011;37579;51.074;17.004;2022-09-13T12:10:42;3.47;;;2.55;;
39750;SDS011;37579;51.074;17.004;2022-09-13T12:13:17;5.13;;;2.55;;
39750;SDS011;37579;51.074;17.004;2022-09-13T12:15:54;4.30;;;2.70;;
39750;SDS011;37579;51.074;17.004;2022-09-13T12:21:46;3.53;;;2.60;;
39750;SDS011;37579;51.074;17.004;2022-09-13T12:24:27;2.80;;;2.60;;
39750;SDS011;37579;51.074;17.004;2022-09-13T12:30:02;3.58;;;2.40;;
39750;SDS011;37579;51.074;17.004;2022-09-13T12:32:43;3.00;;;2.60;;
39750;SDS011;37579;51.074;17.004;2022-09-13T12:35:16;2.60;;;2.40;;
39750;SDS011;37579;51.074;17.004;2022-09-13T12:38:14;3.65;;;2.67;;
39750;SDS011;37579;51.074;17.004;2022-09-13T12:40:55;2.83;;;2.38;;
39750;SDS011;37579;51.074;17.004;2022-09-13T12:46:21;2.38;;;2.15;;
39750;SDS011;37579;51.074;17.004;2022-09-13T13:02:49;3.05;;;2.10;;
39750;SDS011;37579;51.074;17.004;2022-09-13T13:05:29;5.22;;;2.40;;
39750;SDS011;37579;51.074;17.004;2022-09-13T13:08:06;2.70;;;2.30;;
39750;SDS011;37579;51.074;17.004;2022-09-13T13:10:58;2.25;;;1.90;;
39750;SDS011;37579;51.074;17.004;2022-09-13T13:13:37;2.90;;;2.30;;
39750;SDS011;37579;51.074;17.004;2022-09-13T13:19:26;4.28;;;2.63;;
39750;SDS011;37579;51.074;17.004;2022-09-13T13:21:50;3.65;;;2.60;;
39750;SDS011;37579;51.074;17.004;2022-09-13T13:26:51;2.83;;;2.58;;
39750;SDS011;37579;51.074;17.004;2022-09-13T13:29:27;4.93;;;3.00;;
39750;SDS011;37579;51.074;17.004;2022-09-13T13:34:34;2.53;;;2.33;;
39750;SDS011;37579;51.074;17.004;2022-09-13T13:39:42;3.35;;;3.03;;
39750;SDS011;37579;51.074;17.004;2022-09-13T13:49:45;3.72;;;2.63;;
39750;SDS011;37579;51.074;17.004;2022-09-13T14:07:52;3.08;;;2.78;;
39750;SDS011;37579;51.074;17.004;2022-09-13T14:10:53;4.25;;;3.05;;
39750;SDS011;37579;51.074;17.004;2022-09-13T14:21:26;5.28;;;3.05;;
39750;SDS011;37579;51.074;17.004;2022-09-13T14:26:42;6.82;;;2.97;;
39750;SDS011;37579;51.074;17.004;2022-09-13T14:29:11;4.03;;;2.95;;
39750;SDS011;37579;51.074;17.004;2022-09-13T14:31:48;7.57;;;3.17;;
39750;SDS011;37579;51.074;17.004;2022-09-13T14:34:30;5.25;;;3.03;;
39750;SDS011;37579;51.074;17.004;2022-09-13T14:36:59;4.10;;;3.05;;
39750;SDS011;37579;51.074;17.004;2022-09-13T14:39:27;6.60;;;2.72;;
39750;SDS011;37579;51.074;17.004;2022-09-13T14:42:00;5.07;;;2.65;;
39750;SDS011;37579;51.074;17.004;2022-09-13T14:44:45;6.10;;;3.20;;
39750;SDS011;37579;51.074;17.004;2022-09-13T14:47:29;4.32;;;3.20;;
39750;SDS011;37579;51.074;17.004;2022-09-13T14:50:02;6.60;;;2.80;;
39750;SDS011;37579;51.074;17.004;2022-09-13T14:52:47;3.17;;;2.80;;
39750;SDS011;37579;51.074;17.004;2022-09-13T14:55:17;3.58;;;2.50;;
39750;SDS011;37579;51.074;17.004;2022-09-13T14:57:51;2.83;;;2.20;;
39750;SDS011;37579;51.074;17.004;2022-09-13T15:00:22;5.73;;;2.80;;
39750;SDS011;37579;51.074;17.004;2022-09-13T15:02:51;4.43;;;2.65;;
39750;SDS011;37579;51.074;17.004;2022-09-13T15:05:24;4.75;;;2.80;;
39750;SDS011;37579;51.074;17.004;2022-09-13T15:07:52;3.60;;;2.75;;
39750;SDS011;37579;51.074;17.004;2022-09-13T15:10:22;3.95;;;2.65;;
39750;SDS011;37579;51.074;17.004;2022-09-13T15:15:31;3.38;;;2.40;;
39750;SDS011;37579;51.074;17.004;2022-09-13T15:20:54;3.88;;;2.55;;
39750;SDS011;37579;51.074;17.004;2022-09-13T15:23:33;3.63;;;2.88;;
39750;SDS011;37579;51.074;17.004;2022-09-13T15:26:07;3.70;;;2.50;;
39750;SDS011;37579;51.074;17.004;2022-09-13T15:39:40;3.20;;;2.20;;
39750;SDS011;37579;51.074;17.004;2022-09-13T15:42:11;4.47;;;2.50;;
39750;SDS011;37579;51.074;17.004;2022-09-13T15:44:37;3.22;;;2.60;;
39750;SDS011;37579;51.074;17.004;2022-09-13T15:47:07;3.92;;;2.70;;
39750;SDS011;37579;51.074;17.004;2022-09-13T15:49:40;3.10;;;2.63;;
39750;SDS011;37579;51.074;17.004;2022-09-13T15:52:13;2.97;;;2.53;;
39750;SDS011;37579;51.074;17.004;2022-09-13T15:54:40;3.30;;;2.30;;
39750;SDS011;37579;51.074;17.004;2022-09-13T15:57:08;2.72;;;2.53;;
39750;SDS011;37579;51.074;17.004;2022-09-13T15:59:46;3.08;;;2.30;;
39750;SDS011;37579;51.074;17.004;2022-09-13T16:02:16;3.00;;;2.42;;
39750;SDS011;37579;51.074;17.004;2022-09-13T16:04:46;3.00;;;2.70;;
39750;SDS011;37579;51.074;17.004;2022-09-13T16:07:13;2.72;;;2.30;;
39750;SDS011;37579;51.074;17.004;2022-09-13T16:09:39;4.55;;;2.90;;
39750;SDS011;37579;51.074;17.004;2022-09-13T16:12:06;2.35;;;2.15;;
39750;SDS011;37579;51.074;17.004;2022-09-13T16:14:32;3.03;;;2.50;;
39750;SDS011;37579;51.074;17.004;2022-09-13T16:17:03;2.60;;;2.08;;
39750;SDS011;37579;51.074;17.004;2022-09-13T16:19:31;4.38;;;2.05;;
39750;SDS011;37579;51.074;17.004;2022-09-13T16:21:57;4.47;;;2.40;;
39750;SDS011;37579;51.074;17.004;2022-09-13T16:24:23;3.13;;;2.20;;
39750;SDS011;37579;51.074;17.004;2022-09-13T16:26:49;5.18;;;2.90;;
39750;SDS011;37579;51.074;17.004;2022-09-13T16:29:14;2.92;;;2.63;;
39750;SDS011;37579;51.074;17.004;2022-09-13T16:31:40;2.40;;;2.20;;
39750;SDS011;37579;51.074;17.004;2022-09-13T16:34:06;4.57;;;2.15;;
39750;SDS011;37579;51.074;17.004;2022-09-13T16:36:32;7.05;;;2.58;;
39750;SDS011;37579;51.074;17.004;2022-09-13T16:38:58;3.33;;;2.40;;
39750;SDS011;37579;51.074;17.004;2022-09-13T16:41:24;8.73;;;2.50;;
39750;SDS011;37579;51.074;17.004;2022-09-13T16:43:50;4.57;;;2.33;;
39750;SDS011;37579;51.074;17.004;2022-09-13T16:46:16;5.20;;;2.88;;
39750;SDS011;37579;51.074;17.004;2022-09-13T16:48:42;5.05;;;2.65;;
39750;SDS011;37579;51.074;17.004;2022-09-13T16:51:08;7.00;;;3.13;;
39750;SDS011;37579;51.074;17.004;2022-09-13T16:53:37;4.80;;;2.25;;
39750;SDS011;37579;51.074;17.004;2022-09-13T16:56:08;3.97;;;2.38;;
39750;SDS011;37579;51.074;17.004;2022-09-13T16:58:38;8.27;;;2.40;;
39750;SDS011;37579;51.074;17.004;2022-09-13T17:01:06;4.63;;;2.22;;
39750;SDS011;37579;51.074;17.004;2022-09-13T17:03:33;4.43;;;2.38;;
39750;SDS011;37579;51.074;17.004;2022-09-13T17:06:01;4.45;;;2.40;;
39750;SDS011;37579;51.074;17.004;2022-09-13T17:08:28;2.45;;;2.03;;
39750;SDS011;37579;51.074;17.004;2022-09-13T17:10:55;3.55;;;2.33;;
39750;SDS011;37579;51.074;17.004;2022-09-13T17:13:21;4.40;;;2.38;;
39750;SDS011;37579;51.074;17.004;2022-09-13T17:15:48;5.75;;;2.72;;
39750;SDS011;37579;51.074;17.004;2022-09-13T17:18:14;6.25;;;2.80;;
39750;SDS011;37579;51.074;17.004;2022-09-13T17:20:44;5.53;;;3.03;;
39750;SDS011;37579;51.074;17.004;2022-09-13T17:23:11;6.85;;;3.55;;
39750;SDS011;37579;51.074;17.004;2022-09-13T17:25:45;5.05;;;3.22;;
39750;SDS011;37579;51.074;17.004;2022-09-13T17:28:13;6.45;;;3.75;;
39750;SDS011;37579;51.074;17.004;2022-09-13T17:30:40;8.98;;;4.47;;
39750;SDS011;37579;51.074;17.004;2022-09-13T17:33:07;6.57;;;4.13;;
39750;SDS011;37579;51.074;17.004;2022-09-13T17:35:33;5.95;;;4.28;;
39750;SDS011;37579;51.074;17.004;2022-09-13T17:38:00;9.68;;;4.47;;
39750;SDS011;37579;51.074;17.004;2022-09-13T17:40:27;7.32;;;4.88;;
39750;SDS011;37579;51.074;17.004;2022-09-13T17:42:54;8.95;;;4.57;;
39750;SDS011;37579;51.074;17.004;2022-09-13T17:45:20;8.63;;;4.63;;
39750;SDS011;37579;51.074;17.004;2022-09-13T17:47:52;8.88;;;4.82;;
39750;SDS011;37579;51.074;17.004;2022-09-13T17:50:18;7.65;;;4.95;;
39750;SDS011;37579;51.074;17.004;2022-09-13T17:52:44;8.95;;;5.20;;
39750;SDS011;37579;51.074;17.004;2022-09-13T17:55:11;10.68;;;4.68;;
39750;SDS011;37579;51.074;17.004;2022-09-13T17:57:37;12.95;;;5.18;;
39750;SDS011;37579;51.074;17.004;2022-09-13T18:00:03;10.35;;;5.10;;
39750;SDS011;37579;51.074;17.004;2022-09-13T18:02:32;6.88;;;4.55;;
39750;SDS011;37579;51.074;17.004;2022-09-13T18:04:58;9.18;;;5.47;;
39750;SDS011;37579;51.074;17.004;2022-09-13T18:07:24;7.93;;;5.20;;
39750;SDS011;37579;51.074;17.004;2022-09-13T18:09:50;17.98;;;6.53;;
39750;SDS011;37579;51.074;17.004;2022-09-13T18:12:15;8.55;;;5.55;;
39750;SDS011;37579;51.074;17.004;2022-09-13T18:14:41;9.55;;;4.90;;
39750;SDS011;37579;51.074;17.004;2022-09-13T18:17:07;8.00;;;4.57;;
39750;SDS011;37579;51.074;17.004;2022-09-13T18:19:40;8.90;;;4.40;;
39750;SDS011;37579;51.074;17.004;2022-09-13T18:22:07;9.75;;;4.30;;
39750;SDS011;37579;51.074;17.004;2022-09-13T18:24:33;7.97;;;5.10;;
39750;SDS011;37579;51.074;17.004;2022-09-13T18:27:00;9.55;;;5.00;;
39750;SDS011;37579;51.074;17.004;2022-09-13T18:29:26;6.65;;;4.90;;
39750;SDS011;37579;51.074;17.004;2022-09-13T18:31:53;7.85;;;5.35;;
39750;SDS011;37579;51.074;17.004;2022-09-13T18:34:19;9.70;;;4.50;;
39750;SDS011;37579;51.074;17.004;2022-09-13T18:36:46;8.27;;;4.97;;
39750;SDS011;37579;51.074;17.004;2022-09-13T18:39:14;8.60;;;5.05;;
39750;SDS011;37579;51.074;17.004;2022-09-13T18:41:41;8.00;;;5.30;;
39750;SDS011;37579;51.074;17.004;2022-09-13T18:44:09;7.95;;;4.80;;
39750;SDS011;37579;51.074;17.004;2022-09-13T18:46:36;7.88;;;4.88;;
39750;SDS011;37579;51.074;17.004;2022-09-13T18:49:02;8.23;;;4.68;;
39750;SDS011;37579;51.074;17.004;2022-09-13T18:51:30;6.25;;;4.63;;
39750;SDS011;37579;51.074;17.004;2022-09-13T18:53:58;10.15;;;4.65;;
39750;SDS011;37579;51.074;17.004;2022-09-13T18:56:25;7.15;;;4.65;;
39750;SDS011;37579;51.074;17.004;2022-09-13T18:58:52;6.00;;;4.35;;
39750;SDS011;37579;51.074;17.004;2022-09-13T19:01:20;6.35;;;4.45;;
39750;SDS011;37579;51.074;17.004;2022-09-13T19:03:49;6.55;;;4.30;;
39750;SDS011;37579;51.074;17.004;2022-09-13T19:08:44;7.93;;;4.20;;
39750;SDS011;37579;51.074;17.004;2022-09-13T19:11:11;5.68;;;4.43;;
39750;SDS011;37579;51.074;17.004;2022-09-13T19:13:38;8.07;;;4.60;;
39750;SDS011;37579;51.074;17.004;2022-09-13T19:16:05;8.07;;;4.13;;
39750;SDS011;37579;51.074;17.004;2022-09-13T19:18:34;7.35;;;4.88;;
39750;SDS011;37579;51.074;17.004;2022-09-13T19:21:10;6.40;;;4.72;;
39750;SDS011;37579;51.074;17.004;2022-09-13T19:23:38;5.75;;;4.10;;
39750;SDS011;37579;51.074;17.004;2022-09-13T19:26:15;6.80;;;4.07;;
39750;SDS011;37579;51.074;17.004;2022-09-13T19:31:15;7.95;;;4.35;;
39750;SDS011;37579;51.074;17.004;2022-09-13T19:33:41;5.95;;;4.65;;
39750;SDS011;37579;51.074;17.004;2022-09-13T19:38:41;6.10;;;3.92;;
39750;SDS011;37579;51.074;17.004;2022-09-13T19:41:12;5.70;;;4.03;;
39750;SDS011;37579;51.074;17.004;2022-09-13T19:43:40;6.28;;;3.97;;
39750;SDS011;37579;51.074;17.004;2022-09-13T19:46:08;5.60;;;4.07;;
39750;SDS011;37579;51.074;17.004;2022-09-13T19:48:45;6.78;;;4.30;;
39750;SDS011;37579;51.074;17.004;2022-09-13T19:51:14;5.22;;;4.25;;
39750;SDS011;37579;51.074;17.004;2022-09-13T19:53:42;7.45;;;4.25;;
39750;SDS011;37579;51.074;17.004;2022-09-13T19:56:11;5.25;;;3.78;;
39750;SDS011;37579;51.074;17.004;2022-09-13T19:58:39;6.10;;;3.97;;
39750;SDS011;37579;51.074;17.004;2022-09-13T20:01:11;6.20;;;4.47;;
39750;SDS011;37579;51.074;17.004;2022-09-13T20:03:40;7.03;;;4.40;;
39750;SDS011;37579;51.074;17.004;2022-09-13T20:06:07;6.82;;;4.47;;
39750;SDS011;37579;51.074;17.004;2022-09-13T20:08:35;5.57;;;3.97;;
39750;SDS011;37579;51.074;17.004;2022-09-13T20:11:04;6.15;;;3.90;;
39750;SDS011;37579;51.074;17.004;2022-09-13T20:13:35;16.85;;;10.18;;
39750;SDS011;37579;51.074;17.004;2022-09-13T20:16:07;16.38;;;7.65;;
39750;SDS011;37579;51.074;17.004;2022-09-13T20:18:40;45.30;;;22.70;;
39750;SDS011;37579;51.074;17.004;2022-09-13T20:21:07;45.05;;;20.80;;
39750;SDS011;37579;51.074;17.004;2022-09-13T20:23:36;45.17;;;20.17;;
39750;SDS011;37579;51.074;17.004;2022-09-13T20:26:11;40.65;;;20.05;;
39750;SDS011;37579;51.074;17.004;2022-09-13T20:28:52;42.70;;;20.15;;
39750;SDS011;37579;51.074;17.004;2022-09-13T20:31:23;40.35;;;19.48;;
39750;SDS011;37579;51.074;17.004;2022-09-13T20:33:53;38.40;;;18.23;;
39750;SDS011;37579;51.074;17.004;2022-09-13T20:36:20;44.45;;;19.95;;
39750;SDS011;37579;51.074;17.004;2022-09-13T20:38:48;39.15;;;20.20;;
39750;SDS011;37579;51.074;17.004;2022-09-13T20:41:15;46.50;;;21.70;;
39750;SDS011;37579;51.074;17.004;2022-09-13T20:43:43;40.67;;;20.40;;
39750;SDS011;37579;51.074;17.004;2022-09-13T20:46:10;44.33;;;21.10;;
39750;SDS011;37579;51.074;17.004;2022-09-13T20:48:39;46.75;;;21.20;;
39750;SDS011;37579;51.074;17.004;2022-09-13T20:51:07;44.45;;;21.23;;
39750;SDS011;37579;51.074;17.004;2022-09-13T20:53:37;44.92;;;21.70;;
39750;SDS011;37579;51.074;17.004;2022-09-13T20:58:35;45.60;;;22.42;;
39750;SDS011;37579;51.074;17.004;2022-09-13T21:01:06;41.05;;;21.10;;
39750;SDS011;37579;51.074;17.004;2022-09-13T21:03:44;44.57;;;21.57;;
39750;SDS011;37579;51.074;17.004;2022-09-13T21:06:12;40.83;;;21.23;;
39750;SDS011;37579;51.074;17.004;2022-09-13T21:08:39;43.42;;;21.55;;
39750;SDS011;37579;51.074;17.004;2022-09-13T21:11:05;38.40;;;20.40;;
39750;SDS011;37579;51.074;17.004;2022-09-13T21:13:54;39.45;;;20.40;;
39750;SDS011;37579;51.074;17.004;2022-09-13T21:16:24;37.20;;;20.92;;
39750;SDS011;37579;51.074;17.004;2022-09-13T21:18:55;41.72;;;21.27;;
39750;SDS011;37579;51.074;17.004;2022-09-13T21:21:25;41.42;;;21.95;;
39750;SDS011;37579;51.074;17.004;2022-09-13T21:26:21;36.70;;;20.48;;
39750;SDS011;37579;51.074;17.004;2022-09-13T21:28:48;39.58;;;19.58;;
39750;SDS011;37579;51.074;17.004;2022-09-13T21:31:15;36.83;;;20.10;;
39750;SDS011;37579;51.074;17.004;2022-09-13T21:36:17;34.60;;;18.50;;
39750;SDS011;37579;51.074;17.004;2022-09-13T21:38:42;37.67;;;19.15;;
39750;SDS011;37579;51.074;17.004;2022-09-13T21:41:09;35.58;;;19.85;;
39750;SDS011;37579;51.074;17.004;2022-09-13T21:43:37;34.38;;;18.17;;
39750;SDS011;37579;51.074;17.004;2022-09-13T21:46:14;36.10;;;18.20;;
39750;SDS011;37579;51.074;17.004;2022-09-13T21:48:45;31.77;;;18.55;;
39750;SDS011;37579;51.074;17.004;2022-09-13T21:51:22;32.28;;;18.75;;
39750;SDS011;37579;51.074;17.004;2022-09-13T21:53:54;36.20;;;17.70;;
39750;SDS011;37579;51.074;17.004;2022-09-13T21:56:21;28.55;;;16.63;;
39750;SDS011;37579;51.074;17.004;2022-09-13T21:58:52;35.45;;;15.85;;
39750;SDS011;37579;51.074;17.004;2022-09-13T22:01:20;31.23;;;17.50;;
39750;SDS011;37579;51.074;17.004;2022-09-13T22:03:47;30.48;;;17.10;;
39750;SDS011;37579;51.074;17.004;2022-09-13T22:06:14;29.30;;;15.80;;
39750;SDS011;37579;51.074;17.004;2022-09-13T22:08:43;29.25;;;16.27;;
39750;SDS011;37579;51.074;17.004;2022-09-13T22:11:12;27.98;;;16.15;;
39750;SDS011;37579;51.074;17.004;2022-09-13T22:13:41;27.25;;;16.00;;
39750;SDS011;37579;51.074;17.004;2022-09-13T22:16:15;31.30;;;16.52;;
39750;SDS011;37579;51.074;17.004;2022-09-13T22:18:49;26.42;;;15.13;;
39750;SDS011;37579;51.074;17.004;2022-09-13T22:21:24;28.95;;;15.82;;
39750;SDS011;37579;51.074;17.004;2022-09-13T22:23:51;26.10;;;15.02;;
39750;SDS011;37579;51.074;17.004;2022-09-13T22:26:24;25.65;;;15.50;;
39750;SDS011;37579;51.074;17.004;2022-09-13T22:28:52;26.38;;;15.75;;
39750;SDS011;37579;51.074;17.004;2022-09-13T22:31:19;26.75;;;15.57;;
39750;SDS011;37579;51.074;17.004;2022-09-13T22:33:47;25.55;;;15.43;;
39750;SDS011;37579;51.074;17.004;2022-09-13T22:36:14;26.77;;;14.88;;
39750;SDS011;37579;51.074;17.004;2022-09-13T22:38:41;25.05;;;14.52;;
39750;SDS011;37579;51.074;17.004;2022-09-13T22:41:09;26.08;;;14.57;;
39750;SDS011;37579;51.074;17.004;2022-09-13T22:43:37;22.73;;;13.88;;
39750;SDS011;37579;51.074;17.004;2022-09-13T22:46:07;23.00;;;14.18;;
39750;SDS011;37579;51.074;17.004;2022-09-13T22:48:36;24.92;;;14.13;;
39750;SDS011;37579;51.074;17.004;2022-09-13T22:51:03;23.08;;;12.98;;
39750;SDS011;37579;51.074;17.004;2022-09-13T22:53:31;24.10;;;14.30;;
39750;SDS011;37579;51.074;17.004;2022-09-13T22:56:05;21.52;;;12.85;;
39750;SDS011;37579;51.074;17.004;2022-09-13T22:58:32;23.17;;;13.35;;
39750;SDS011;37579;51.074;17.004;2022-09-13T23:01:02;21.27;;;12.85;;
39750;SDS011;37579;51.074;17.004;2022-09-13T23:03:31;23.15;;;13.32;;
39750;SDS011;37579;51.074;17.004;2022-09-13T23:05:58;20.80;;;12.27;;
39750;SDS011;37579;51.074;17.004;2022-09-13T23:08:24;20.90;;;12.75;;
39750;SDS011;37579;51.074;17.004;2022-09-13T23:10:50;21.80;;;12.35;;
39750;SDS011;37579;51.074;17.004;2022-09-13T23:13:16;20.23;;;12.38;;
39750;SDS011;37579;51.074;17.004;2022-09-13T23:15:41;22.42;;;13.10;;
39750;SDS011;37579;51.074;17.004;2022-09-13T23:18:07;19.52;;;12.02;;
39750;SDS011;37579;51.074;17.004;2022-09-13T23:20:34;20.00;;;11.88;;
39750;SDS011;37579;51.074;17.004;2022-09-13T23:23:01;21.08;;;12.18;;
39750;SDS011;37579;51.074;17.004;2022-09-13T23:25:27;17.83;;;11.32;;
39750;SDS011;37579;51.074;17.004;2022-09-13T23:27:53;17.30;;;10.85;;
39750;SDS011;37579;51.074;17.004;2022-09-13T23:30:19;17.13;;;11.25;;
39750;SDS011;37579;51.074;17.004;2022-09-13T23:32:48;19.05;;;11.50;;
39750;SDS011;37579;51.074;17.004;2022-09-13T23:35:15;21.10;;;12.10;;
39750;SDS011;37579;51.074;17.004;2022-09-13T23:37:42;16.45;;;10.38;;
39750;SDS011;37579;51.074;17.004;2022-09-13T23:40:11;17.98;;;10.80;;
39750;SDS011;37579;51.074;17.004;2022-09-13T23:42:38;17.17;;;11.07;;
39750;SDS011;37579;51.074;17.004;2022-09-13T23:45:04;18.52;;;10.70;;
39750;SDS011;37579;51.074;17.004;2022-09-13T23:47:31;17.92;;;10.90;;
39750;SDS011;37579;51.074;17.004;2022-09-13T23:49:56;16.83;;;11.10;;
39750;SDS011;37579;51.074;17.004;2022-09-13T23:52:22;15.90;;;10.23;;
39750;SDS011;37579;51.074;17.004;2022-09-13T23:54:48;15.77;;;9.80;;
39750;SDS011;37579;51.074;17.004;2022-09-13T23:57:14;14.90;;;9.77;;
39750;SDS011;37579;51.074;17.004;2022-09-13T23:59:40;14.98;;;9.98;;
